sensor_id;sensor_type;location;lat;lon;timestamp;pressure;altitude;pressure_sealevel;temperature;humidity
41334;BME280;27078;46.428;6.256;2022-08-24T00:00:00;58546.78;;;-145.02;100.00
41334;BME280;27078;46.428;6.256;2022-08-24T00:02:26;58546.78;;;-145.02;100.00
41334;BME280;27078;46.428;6.256;2022-08-24T00:04:52;58546.78;;;-145.02;100.00
41334;BME280;27078;46.428;6.256;2022-08-24T00:07:19;58546.78;;;-145.02;100.00
41334;BME280;27078;46.428;6.256;2022-08-24T00:09:45;58546.78;;;-145.02;100.00
41334;BME280;27078;46.428;6.256;2022-08-24T00:12:12;58546.78;;;-145.02;100.00
41334;BME280;27078;46.428;6.256;2022-08-24T00:14:39;58546.78;;;-145.02;100.00
41334;BME280;27078;46.428;6.256;2022-08-24T00:17:05;58546.78;;;-145.02;100.00
41334;BME280;27078;46.428;6.256;2022-08-24T00:19:32;58546.78;;;-145.02;100.00
41334;BME280;27078;46.428;6.256;2022-08-24T00:21:58;58546.78;;;-145.02;100.00
41334;BME280;27078;46.428;6.256;2022-08-24T00:24:25;58546.78;;;-145.02;100.00
41334;BME280;27078;46.428;6.256;2022-08-24T00:26:51;58546.78;;;-145.02;100.00
41334;BME280;27078;46.428;6.256;2022-08-24T00:29:18;58546.78;;;-145.02;100.00
41334;BME280;27078;46.428;6.256;2022-08-24T00:31:44;58546.78;;;-145.02;100.00
41334;BME280;27078;46.428;6.256;2022-08-24T00:34:09;58546.78;;;-145.02;100.00
41334;BME280;27078;46.428;6.256;2022-08-24T00:36:35;58546.78;;;-145.02;100.00
41334;BME280;27078;46.428;6.256;2022-08-24T00:39:01;58546.78;;;-145.02;100.00
41334;BME280;27078;46.428;6.256;2022-08-24T00:41:28;58546.78;;;-145.02;100.00
41334;BME280;27078;46.428;6.256;2022-08-24T00:43:59;58546.78;;;-145.02;100.00
41334;BME280;27078;46.428;6.256;2022-08-24T00:46:26;58546.78;;;-145.02;100.00
41334;BME280;27078;46.428;6.256;2022-08-24T00:49:01;58546.78;;;-145.02;100.00
41334;BME280;27078;46.428;6.256;2022-08-24T00:51:44;58546.78;;;-145.02;100.00
41334;BME280;27078;46.428;6.256;2022-08-24T00:54:13;58546.78;;;-145.02;100.00
41334;BME280;27078;46.428;6.256;2022-08-24T00:56:50;58546.78;;;-145.02;100.00
41334;BME280;27078;46.428;6.256;2022-08-24T00:59:21;58546.78;;;-145.02;100.00
41334;BME280;27078;46.428;6.256;2022-08-24T01:01:49;58546.78;;;-145.02;100.00
41334;BME280;27078;46.428;6.256;2022-08-24T01:04:21;58546.78;;;-145.02;100.00
41334;BME280;27078;46.428;6.256;2022-08-24T01:06:54;58546.78;;;-145.02;100.00
41334;BME280;27078;46.428;6.256;2022-08-24T01:09:19;58546.78;;;-145.02;100.00
41334;BME280;27078;46.428;6.256;2022-08-24T01:11:44;58546.78;;;-145.02;100.00
41334;BME280;27078;46.428;6.256;2022-08-24T01:14:10;58546.78;;;-145.02;100.00
41334;BME280;27078;46.428;6.256;2022-08-24T01:16:35;58546.78;;;-145.02;100.00
41334;BME280;27078;46.428;6.256;2022-08-24T01:24:39;58546.78;;;-145.02;100.00
41334;BME280;27078;46.428;6.256;2022-08-24T01:27:07;58546.78;;;-145.02;100.00
41334;BME280;27078;46.428;6.256;2022-08-24T01:29:34;58546.78;;;-145.02;100.00
41334;BME280;27078;46.428;6.256;2022-08-24T01:31:59;58546.78;;;-145.02;100.00
41334;BME280;27078;46.428;6.256;2022-08-24T01:34:24;58546.78;;;-145.02;100.00
41334;BME280;27078;46.428;6.256;2022-08-24T01:36:52;58546.78;;;-145.02;100.00
41334;BME280;27078;46.428;6.256;2022-08-24T01:39:27;58546.78;;;-145.02;100.00
41334;BME280;27078;46.428;6.256;2022-08-24T01:41:53;58546.78;;;-145.02;100.00
41334;BME280;27078;46.428;6.256;2022-08-24T01:44:20;58546.78;;;-145.02;100.00
41334;BME280;27078;46.428;6.256;2022-08-24T01:46:48;58546.78;;;-145.02;100.00
41334;BME280;27078;46.428;6.256;2022-08-24T01:49:14;58546.78;;;-145.02;100.00
41334;BME280;27078;46.428;6.256;2022-08-24T01:51:41;58546.78;;;-145.02;100.00
41334;BME280;27078;46.428;6.256;2022-08-24T01:54:07;58546.78;;;-145.02;100.00
41334;BME280;27078;46.428;6.256;2022-08-24T01:56:33;58546.78;;;-145.02;100.00
41334;BME280;27078;46.428;6.256;2022-08-24T01:58:59;58546.78;;;-145.02;100.00
41334;BME280;27078;46.428;6.256;2022-08-24T02:01:26;58546.78;;;-145.02;100.00
41334;BME280;27078;46.428;6.256;2022-08-24T02:03:53;58546.78;;;-145.02;100.00
41334;BME280;27078;46.428;6.256;2022-08-24T02:06:19;58546.78;;;-145.02;100.00
41334;BME280;27078;46.428;6.256;2022-08-24T02:08:44;58546.78;;;-145.02;100.00
41334;BME280;27078;46.428;6.256;2022-08-24T02:11:11;58546.78;;;-145.02;100.00
41334;BME280;27078;46.428;6.256;2022-08-24T02:13:38;58546.78;;;-145.02;100.00
41334;BME280;27078;46.428;6.256;2022-08-24T02:16:04;58546.78;;;-145.02;100.00
41334;BME280;27078;46.428;6.256;2022-08-24T02:18:32;58546.78;;;-145.02;100.00
41334;BME280;27078;46.428;6.256;2022-08-24T02:20:58;58546.78;;;-145.02;100.00
41334;BME280;27078;46.428;6.256;2022-08-24T02:23:24;58546.78;;;-145.02;100.00
41334;BME280;27078;46.428;6.256;2022-08-24T02:25:50;58546.78;;;-145.02;100.00
41334;BME280;27078;46.428;6.256;2022-08-24T02:28:17;58546.78;;;-145.02;100.00
41334;BME280;27078;46.428;6.256;2022-08-24T02:30:43;58546.78;;;-145.02;100.00
41334;BME280;27078;46.428;6.256;2022-08-24T02:33:08;58546.78;;;-145.02;100.00
41334;BME280;27078;46.428;6.256;2022-08-24T02:35:34;58546.78;;;-145.02;100.00
41334;BME280;27078;46.428;6.256;2022-08-24T02:37:59;58546.78;;;-145.02;100.00
41334;BME280;27078;46.428;6.256;2022-08-24T02:40:25;58546.78;;;-145.02;100.00
41334;BME280;27078;46.428;6.256;2022-08-24T02:42:51;58546.78;;;-145.02;100.00
41334;BME280;27078;46.428;6.256;2022-08-24T02:45:17;58546.78;;;-145.02;100.00
41334;BME280;27078;46.428;6.256;2022-08-24T02:47:42;58546.78;;;-145.02;100.00
41334;BME280;27078;46.428;6.256;2022-08-24T02:50:10;58546.78;;;-145.02;100.00
41334;BME280;27078;46.428;6.256;2022-08-24T02:52:37;58546.78;;;-145.02;100.00
41334;BME280;27078;46.428;6.256;2022-08-24T02:55:05;58546.78;;;-145.02;100.00
41334;BME280;27078;46.428;6.256;2022-08-24T02:57:31;58546.78;;;-145.02;100.00
41334;BME280;27078;46.428;6.256;2022-08-24T02:59:56;58546.78;;;-145.02;100.00
41334;BME280;27078;46.428;6.256;2022-08-24T03:02:21;58546.78;;;-145.02;100.00
41334;BME280;27078;46.428;6.256;2022-08-24T03:04:47;58546.78;;;-145.02;100.00
41334;BME280;27078;46.428;6.256;2022-08-24T03:07:12;58546.78;;;-145.02;100.00
41334;BME280;27078;46.428;6.256;2022-08-24T03:09:38;58546.78;;;-145.02;100.00
41334;BME280;27078;46.428;6.256;2022-08-24T03:12:03;58546.78;;;-145.02;100.00
41334;BME280;27078;46.428;6.256;2022-08-24T03:14:28;58546.78;;;-145.02;100.00
41334;BME280;27078;46.428;6.256;2022-08-24T03:16:54;58546.78;;;-145.02;100.00
41334;BME280;27078;46.428;6.256;2022-08-24T03:19:19;58546.78;;;-145.02;100.00
41334;BME280;27078;46.428;6.256;2022-08-24T03:21:46;58546.78;;;-145.02;100.00
41334;BME280;27078;46.428;6.256;2022-08-24T03:24:11;58546.78;;;-145.02;100.00
41334;BME280;27078;46.428;6.256;2022-08-24T03:26:37;58546.78;;;-145.02;100.00
41334;BME280;27078;46.428;6.256;2022-08-24T03:29:03;58546.78;;;-145.02;100.00
41334;BME280;27078;46.428;6.256;2022-08-24T03:31:29;58546.78;;;-145.02;100.00
41334;BME280;27078;46.428;6.256;2022-08-24T03:33:54;58546.78;;;-145.02;100.00
41334;BME280;27078;46.428;6.256;2022-08-24T03:36:19;58546.78;;;-145.02;100.00
41334;BME280;27078;46.428;6.256;2022-08-24T03:38:45;58546.78;;;-145.02;100.00
41334;BME280;27078;46.428;6.256;2022-08-24T03:41:10;58546.78;;;-145.02;100.00
41334;BME280;27078;46.428;6.256;2022-08-24T03:43:37;58546.78;;;-145.02;100.00
41334;BME280;27078;46.428;6.256;2022-08-24T03:46:19;58546.78;;;-145.02;100.00
41334;BME280;27078;46.428;6.256;2022-08-24T03:48:45;58546.78;;;-145.02;100.00
41334;BME280;27078;46.428;6.256;2022-08-24T03:51:17;58546.78;;;-145.02;100.00
41334;BME280;27078;46.428;6.256;2022-08-24T03:53:42;58546.78;;;-145.02;100.00
41334;BME280;27078;46.428;6.256;2022-08-24T03:56:08;58546.78;;;-145.02;100.00
41334;BME280;27078;46.428;6.256;2022-08-24T03:58:38;58546.78;;;-145.02;100.00
41334;BME280;27078;46.428;6.256;2022-08-24T04:01:04;58546.78;;;-145.02;100.00
41334;BME280;27078;46.428;6.256;2022-08-24T04:03:30;58546.78;;;-145.02;100.00
41334;BME280;27078;46.428;6.256;2022-08-24T04:05:59;58546.78;;;-145.02;100.00
41334;BME280;27078;46.428;6.256;2022-08-24T04:08:25;58546.78;;;-145.02;100.00
41334;BME280;27078;46.428;6.256;2022-08-24T04:10:50;58546.78;;;-145.02;100.00
41334;BME280;27078;46.428;6.256;2022-08-24T04:13:18;58546.78;;;-145.02;100.00
41334;BME280;27078;46.428;6.256;2022-08-24T04:15:43;58546.78;;;-145.02;100.00
41334;BME280;27078;46.428;6.256;2022-08-24T04:18:09;58546.78;;;-145.02;100.00
41334;BME280;27078;46.428;6.256;2022-08-24T04:20:40;58546.78;;;-145.02;100.00
41334;BME280;27078;46.428;6.256;2022-08-24T04:23:07;58546.78;;;-145.02;100.00
41334;BME280;27078;46.428;6.256;2022-08-24T04:25:44;58546.78;;;-145.02;100.00
41334;BME280;27078;46.428;6.256;2022-08-24T04:28:12;58546.78;;;-145.02;100.00
41334;BME280;27078;46.428;6.256;2022-08-24T04:30:42;58546.78;;;-145.02;100.00
41334;BME280;27078;46.428;6.256;2022-08-24T04:33:11;58546.78;;;-145.02;100.00
41334;BME280;27078;46.428;6.256;2022-08-24T04:35:38;58546.78;;;-145.02;100.00
41334;BME280;27078;46.428;6.256;2022-08-24T04:38:04;58546.78;;;-145.02;100.00
41334;BME280;27078;46.428;6.256;2022-08-24T04:40:30;58546.78;;;-145.02;100.00
41334;BME280;27078;46.428;6.256;2022-08-24T04:42:55;58546.78;;;-145.02;100.00
41334;BME280;27078;46.428;6.256;2022-08-24T04:45:23;58546.78;;;-145.02;100.00
41334;BME280;27078;46.428;6.256;2022-08-24T04:47:49;58546.78;;;-145.02;100.00
41334;BME280;27078;46.428;6.256;2022-08-24T04:50:14;58546.78;;;-145.02;100.00
41334;BME280;27078;46.428;6.256;2022-08-24T04:52:40;58546.78;;;-145.02;100.00
41334;BME280;27078;46.428;6.256;2022-08-24T04:55:06;58546.78;;;-145.02;100.00
41334;BME280;27078;46.428;6.256;2022-08-24T04:57:32;58546.78;;;-145.02;100.00
41334;BME280;27078;46.428;6.256;2022-08-24T04:59:58;58546.78;;;-145.02;100.00
41334;BME280;27078;46.428;6.256;2022-08-24T05:02:24;58546.78;;;-145.02;100.00
41334;BME280;27078;46.428;6.256;2022-08-24T05:04:49;58546.78;;;-145.02;100.00
41334;BME280;27078;46.428;6.256;2022-08-24T05:07:16;58546.78;;;-145.02;100.00
41334;BME280;27078;46.428;6.256;2022-08-24T05:09:42;58546.78;;;-145.02;100.00
41334;BME280;27078;46.428;6.256;2022-08-24T05:12:08;58546.78;;;-145.02;100.00
41334;BME280;27078;46.428;6.256;2022-08-24T05:14:33;58546.78;;;-145.02;100.00
41334;BME280;27078;46.428;6.256;2022-08-24T05:16:59;58546.78;;;-145.02;100.00
41334;BME280;27078;46.428;6.256;2022-08-24T05:19:24;58546.78;;;-145.02;100.00
41334;BME280;27078;46.428;6.256;2022-08-24T05:21:50;58546.78;;;-145.02;100.00
41334;BME280;27078;46.428;6.256;2022-08-24T05:24:15;58546.78;;;-145.02;100.00
41334;BME280;27078;46.428;6.256;2022-08-24T05:26:41;58546.78;;;-145.02;100.00
41334;BME280;27078;46.428;6.256;2022-08-24T05:29:06;58546.78;;;-145.02;100.00
41334;BME280;27078;46.428;6.256;2022-08-24T05:31:32;58546.78;;;-145.02;100.00
41334;BME280;27078;46.428;6.256;2022-08-24T05:33:59;58546.78;;;-145.02;100.00
41334;BME280;27078;46.428;6.256;2022-08-24T05:36:28;58546.78;;;-145.02;100.00
41334;BME280;27078;46.428;6.256;2022-08-24T05:38:55;58546.78;;;-145.02;100.00
41334;BME280;27078;46.428;6.256;2022-08-24T05:41:21;58546.78;;;-145.02;100.00
41334;BME280;27078;46.428;6.256;2022-08-24T05:43:46;58546.78;;;-145.02;100.00
41334;BME280;27078;46.428;6.256;2022-08-24T05:46:12;58546.78;;;-145.02;100.00
41334;BME280;27078;46.428;6.256;2022-08-24T05:48:38;58546.78;;;-145.02;100.00
41334;BME280;27078;46.428;6.256;2022-08-24T05:51:05;58546.78;;;-145.02;100.00
41334;BME280;27078;46.428;6.256;2022-08-24T05:53:32;58546.78;;;-145.02;100.00
41334;BME280;27078;46.428;6.256;2022-08-24T05:55:57;58546.78;;;-145.02;100.00
41334;BME280;27078;46.428;6.256;2022-08-24T05:58:23;58546.78;;;-145.02;100.00
41334;BME280;27078;46.428;6.256;2022-08-24T06:00:48;58546.78;;;-145.02;100.00
41334;BME280;27078;46.428;6.256;2022-08-24T06:03:14;58546.78;;;-145.02;100.00
41334;BME280;27078;46.428;6.256;2022-08-24T06:05:41;58546.78;;;-145.02;100.00
41334;BME280;27078;46.428;6.256;2022-08-24T06:08:07;58546.78;;;-145.02;100.00
41334;BME280;27078;46.428;6.256;2022-08-24T06:10:45;58546.78;;;-145.02;100.00
41334;BME280;27078;46.428;6.256;2022-08-24T06:15:42;96532.03;;;18.33;95.86
41334;BME280;27078;46.428;6.256;2022-08-24T06:18:08;96537.09;;;18.43;95.89
41334;BME280;27078;46.428;6.256;2022-08-24T06:20:38;96538.47;;;18.54;96.13
41334;BME280;27078;46.428;6.256;2022-08-24T06:23:04;96539.03;;;18.64;93.86
41334;BME280;27078;46.428;6.256;2022-08-24T06:25:30;96530.94;;;18.72;93.53
41334;BME280;27078;46.428;6.256;2022-08-24T06:28:13;96538.97;;;18.87;95.93
41334;BME280;27078;46.428;6.256;2022-08-24T06:30:39;96529.72;;;19.04;98.13
41334;BME280;27078;46.428;6.256;2022-08-24T06:33:07;96536.44;;;19.15;97.75
41334;BME280;27078;46.428;6.256;2022-08-24T06:35:33;96532.44;;;19.26;96.77
41334;BME280;27078;46.428;6.256;2022-08-24T06:37:59;96527.63;;;19.36;94.92
41334;BME280;27078;46.428;6.256;2022-08-24T06:40:25;96531.47;;;19.48;95.92
41334;BME280;27078;46.428;6.256;2022-08-24T06:42:50;96532.44;;;19.62;96.07
41334;BME280;27078;46.428;6.256;2022-08-24T06:45:16;96530.00;;;19.67;96.35
41334;BME280;27078;46.428;6.256;2022-08-24T06:47:42;96536.78;;;19.85;96.55
41334;BME280;27078;46.428;6.256;2022-08-24T06:50:08;96535.25;;;19.97;91.83
41334;BME280;27078;46.428;6.256;2022-08-24T06:52:34;96548.88;;;20.02;93.35
41334;BME280;27078;46.428;6.256;2022-08-24T06:55:00;96541.34;;;20.12;91.96
41334;BME280;27078;46.428;6.256;2022-08-24T06:57:25;96542.88;;;20.22;92.75
41334;BME280;27078;46.428;6.256;2022-08-24T06:59:51;96551.19;;;20.33;89.81
41334;BME280;27078;46.428;6.256;2022-08-24T07:02:16;96548.81;;;20.45;91.05
41334;BME280;27078;46.428;6.256;2022-08-24T07:04:44;96550.94;;;20.57;87.51
41334;BME280;27078;46.428;6.256;2022-08-24T07:07:09;96551.25;;;20.62;89.81
41334;BME280;27078;46.428;6.256;2022-08-24T07:09:35;96546.13;;;20.73;90.52
41334;BME280;27078;46.428;6.256;2022-08-24T07:12:00;96544.53;;;20.79;87.71
41334;BME280;27078;46.428;6.256;2022-08-24T07:14:26;96544.59;;;20.92;88.61
41334;BME280;27078;46.428;6.256;2022-08-24T07:16:52;96541.13;;;21.05;87.54
41334;BME280;27078;46.428;6.256;2022-08-24T07:19:17;96543.47;;;21.15;87.74
41334;BME280;27078;46.428;6.256;2022-08-24T07:21:43;96543.28;;;21.23;82.23
41334;BME280;27078;46.428;6.256;2022-08-24T07:24:08;96544.31;;;21.29;86.13
41334;BME280;27078;46.428;6.256;2022-08-24T07:26:34;96548.25;;;21.33;88.05
41334;BME280;27078;46.428;6.256;2022-08-24T07:29:08;96556.34;;;21.40;91.29
41334;BME280;27078;46.428;6.256;2022-08-24T07:31:36;96548.53;;;21.45;91.17
41334;BME280;27078;46.428;6.256;2022-08-24T07:34:03;96551.25;;;21.51;91.87
41334;BME280;27078;46.428;6.256;2022-08-24T07:36:30;96546.72;;;21.59;91.63
41334;BME280;27078;46.428;6.256;2022-08-24T07:38:55;96542.38;;;21.64;87.25
41334;BME280;27078;46.428;6.256;2022-08-24T07:41:23;96553.16;;;21.78;87.60
41334;BME280;27078;46.428;6.256;2022-08-24T07:43:53;96547.19;;;21.89;84.82
41334;BME280;27078;46.428;6.256;2022-08-24T07:46:18;96553.19;;;21.98;84.25
41334;BME280;27078;46.428;6.256;2022-08-24T07:48:44;96560.63;;;22.02;86.96
41334;BME280;27078;46.428;6.256;2022-08-24T07:51:12;96547.81;;;22.11;84.88
41334;BME280;27078;46.428;6.256;2022-08-24T07:53:38;96553.19;;;22.17;86.36
41334;BME280;27078;46.428;6.256;2022-08-24T07:56:04;96553.63;;;22.28;86.33
41334;BME280;27078;46.428;6.256;2022-08-24T07:58:30;96546.19;;;22.36;83.81
41334;BME280;27078;46.428;6.256;2022-08-24T08:00:55;96546.78;;;22.45;85.82
41334;BME280;27078;46.428;6.256;2022-08-24T08:03:22;96544.31;;;22.57;84.93
41334;BME280;27078;46.428;6.256;2022-08-24T08:05:54;96540.75;;;22.70;81.49
41334;BME280;27078;46.428;6.256;2022-08-24T08:08:21;96544.47;;;22.82;79.13
41334;BME280;27078;46.428;6.256;2022-08-24T08:10:47;96543.78;;;22.93;76.79
41334;BME280;27078;46.428;6.256;2022-08-24T08:13:12;96547.31;;;23.07;75.93
41334;BME280;27078;46.428;6.256;2022-08-24T08:15:38;96552.03;;;23.19;71.14
41334;BME280;27078;46.428;6.256;2022-08-24T08:18:03;96553.06;;;23.24;69.03
41334;BME280;27078;46.428;6.256;2022-08-24T08:21:27;58546.78;;;-145.02;100.00
41334;BME280;27078;46.428;6.256;2022-08-24T08:25:09;58546.78;;;-145.02;100.00
41334;BME280;27078;46.428;6.256;2022-08-24T08:28:33;58546.78;;;-145.02;100.00
41334;BME280;27078;46.428;6.256;2022-08-24T08:31:58;58546.78;;;-145.02;100.00
41334;BME280;27078;46.428;6.256;2022-08-24T08:35:24;58546.78;;;-145.02;100.00
41334;BME280;27078;46.428;6.256;2022-08-24T08:38:50;58546.78;;;-145.02;100.00
41334;BME280;27078;46.428;6.256;2022-08-24T08:42:20;58546.78;;;-145.02;100.00
41334;BME280;27078;46.428;6.256;2022-08-24T08:46:12;58546.78;;;-145.02;100.00
41334;BME280;27078;46.428;6.256;2022-08-24T08:53:28;58546.78;;;-145.02;100.00
41334;BME280;27078;46.428;6.256;2022-08-24T09:23:20;58546.78;;;-145.02;100.00
41334;BME280;27078;46.428;6.256;2022-08-24T09:26:58;58546.78;;;-145.02;100.00
41334;BME280;27078;46.428;6.256;2022-08-24T09:47:47;96531.41;;;25.20;56.66
41334;BME280;27078;46.428;6.256;2022-08-24T10:07:27;96528.16;;;25.60;60.40
41334;BME280;27078;46.428;6.256;2022-08-24T10:13:24;96519.59;;;25.63;56.42
41334;BME280;27078;46.428;6.256;2022-08-24T10:16:08;96518.66;;;25.69;57.71
41334;BME280;27078;46.428;6.256;2022-08-24T10:27:20;96523.75;;;25.77;56.02
41334;BME280;27078;46.428;6.256;2022-08-24T10:35:16;96515.97;;;25.99;57.87
41334;BME280;27078;46.428;6.256;2022-08-24T10:38:13;96512.94;;;26.08;56.25
41334;BME280;27078;46.428;6.256;2022-08-24T10:46:52;96507.88;;;26.35;51.90
41334;BME280;27078;46.428;6.256;2022-08-24T10:52:24;96506.13;;;26.40;49.35
41334;BME280;27078;46.428;6.256;2022-08-24T10:55:21;96505.06;;;26.53;50.68
41334;BME280;27078;46.428;6.256;2022-08-24T11:00:44;96497.66;;;26.72;48.16
41334;BME280;27078;46.428;6.256;2022-08-24T11:03:11;96496.00;;;26.83;47.49
41334;BME280;27078;46.428;6.256;2022-08-24T11:05:52;96492.22;;;26.96;48.09
41334;BME280;27078;46.428;6.256;2022-08-24T11:08:27;96500.06;;;27.09;48.60
41334;BME280;27078;46.428;6.256;2022-08-24T11:13:36;96496.38;;;27.15;48.16
41334;BME280;27078;46.428;6.256;2022-08-24T11:18:53;96499.53;;;27.36;45.49
41334;BME280;27078;46.428;6.256;2022-08-24T11:21:39;96496.75;;;27.31;44.92
41334;BME280;27078;46.428;6.256;2022-08-24T11:24:28;96494.34;;;27.34;44.85
41334;BME280;27078;46.428;6.256;2022-08-24T11:32:37;96498.56;;;27.42;44.64
41334;BME280;27078;46.428;6.256;2022-08-24T11:35:22;96492.81;;;27.38;42.93
41334;BME280;27078;46.428;6.256;2022-08-24T11:37:50;96489.13;;;27.45;43.10
41334;BME280;27078;46.428;6.256;2022-08-24T11:40:18;96489.88;;;27.40;44.25
41334;BME280;27078;46.428;6.256;2022-08-24T11:42:57;96489.63;;;27.41;44.26
41334;BME280;27078;46.428;6.256;2022-08-24T11:48:23;96498.13;;;27.62;42.28
41334;BME280;27078;46.428;6.256;2022-08-24T11:54:00;96487.56;;;27.77;42.83
41334;BME280;27078;46.428;6.256;2022-08-24T11:56:40;96485.44;;;27.79;42.92
41334;BME280;27078;46.428;6.256;2022-08-24T12:02:34;96485.91;;;27.76;42.97
41334;BME280;27078;46.428;6.256;2022-08-24T12:05:10;96489.34;;;27.72;42.13
41334;BME280;27078;46.428;6.256;2022-08-24T12:07:47;96488.16;;;27.79;41.59
41334;BME280;27078;46.428;6.256;2022-08-24T12:16:31;96494.34;;;27.63;41.87
41334;BME280;27078;46.428;6.256;2022-08-24T12:19:08;96478.81;;;27.58;41.63
41334;BME280;27078;46.428;6.256;2022-08-24T12:21:38;96475.03;;;27.59;42.38
41334;BME280;27078;46.428;6.256;2022-08-24T12:24:08;96475.84;;;27.60;41.61
41334;BME280;27078;46.428;6.256;2022-08-24T12:26:36;96477.44;;;27.73;41.29
41334;BME280;27078;46.428;6.256;2022-08-24T12:29:07;96481.06;;;27.78;41.02
41334;BME280;27078;46.428;6.256;2022-08-24T12:40:02;96478.66;;;27.65;41.47
41334;BME280;27078;46.428;6.256;2022-08-24T12:42:52;96479.59;;;27.71;40.37
41334;BME280;27078;46.428;6.256;2022-08-24T12:45:21;96477.34;;;27.68;41.51
41334;BME280;27078;46.428;6.256;2022-08-24T12:55:56;96481.78;;;27.86;42.52
41334;BME280;27078;46.428;6.256;2022-08-24T13:01:02;96478.16;;;27.97;40.95
41334;BME280;27078;46.428;6.256;2022-08-24T13:03:33;96472.81;;;28.02;39.40
41334;BME280;27078;46.428;6.256;2022-08-24T13:06:05;96477.41;;;28.01;41.52
41334;BME280;27078;46.428;6.256;2022-08-24T13:08:43;96474.06;;;27.94;39.23
41334;BME280;27078;46.428;6.256;2022-08-24T13:11:27;96473.31;;;27.99;38.28
41334;BME280;27078;46.428;6.256;2022-08-24T13:29:13;96462.44;;;27.99;39.68
41334;BME280;27078;46.428;6.256;2022-08-24T13:38:41;96449.44;;;28.18;38.26
41334;BME280;27078;46.428;6.256;2022-08-24T14:04:08;96441.09;;;28.58;37.96
41334;BME280;27078;46.428;6.256;2022-08-24T14:20:01;96427.72;;;28.74;37.52
41334;BME280;27078;46.428;6.256;2022-08-24T14:25:31;96425.19;;;28.89;36.89
41334;BME280;27078;46.428;6.256;2022-08-24T14:45:17;96417.00;;;29.60;36.81
41334;BME280;27078;46.428;6.256;2022-08-24T14:56:08;96406.53;;;30.12;35.14
41334;BME280;27078;46.428;6.256;2022-08-24T15:01:41;96409.44;;;30.32;35.25
41334;BME280;27078;46.428;6.256;2022-08-24T15:04:54;96405.41;;;30.45;34.39
41334;BME280;27078;46.428;6.256;2022-08-24T15:07:35;96407.09;;;30.46;34.80
41334;BME280;27078;46.428;6.256;2022-08-24T15:10:23;96407.63;;;30.48;34.74
41334;BME280;27078;46.428;6.256;2022-08-24T15:13:37;96403.81;;;30.44;34.08
41334;BME280;27078;46.428;6.256;2022-08-24T15:22:18;96396.53;;;30.17;34.17
41334;BME280;27078;46.428;6.256;2022-08-24T15:24:51;96400.28;;;30.11;35.16
41334;BME280;27078;46.428;6.256;2022-08-24T15:27:49;96399.97;;;30.08;34.88
41334;BME280;27078;46.428;6.256;2022-08-24T15:30:28;96405.97;;;30.04;33.98
41334;BME280;27078;46.428;6.256;2022-08-24T15:33:11;96393.31;;;30.26;34.29
41334;BME280;27078;46.428;6.256;2022-08-24T15:35:43;96400.47;;;30.32;34.17
41334;BME280;27078;46.428;6.256;2022-08-24T15:38:22;96394.63;;;30.66;34.19
41334;BME280;27078;46.428;6.256;2022-08-24T15:43:33;96395.75;;;31.48;32.07
41334;BME280;27078;46.428;6.256;2022-08-24T15:46:01;96398.19;;;31.85;31.31
41334;BME280;27078;46.428;6.256;2022-08-24T15:48:29;96391.94;;;32.21;30.24
41334;BME280;27078;46.428;6.256;2022-08-24T15:50:56;96389.97;;;32.47;29.71
41334;BME280;27078;46.428;6.256;2022-08-24T15:53:40;96386.66;;;32.65;29.74
41334;BME280;27078;46.428;6.256;2022-08-24T15:58:47;96388.16;;;32.97;28.06
41334;BME280;27078;46.428;6.256;2022-08-24T16:06:36;96392.38;;;33.34;25.81
41334;BME280;27078;46.428;6.256;2022-08-24T16:11:49;96395.88;;;33.40;28.67
41334;BME280;27078;46.428;6.256;2022-08-24T16:16:55;96401.03;;;33.46;27.53
41334;BME280;27078;46.428;6.256;2022-08-24T16:19:33;96398.44;;;33.65;27.23
41334;BME280;27078;46.428;6.256;2022-08-24T16:22:04;96391.94;;;33.61;27.52
41334;BME280;27078;46.428;6.256;2022-08-24T16:24:34;96391.09;;;33.61;26.02
41334;BME280;27078;46.428;6.256;2022-08-24T16:27:08;96393.84;;;33.61;26.54
41334;BME280;27078;46.428;6.256;2022-08-24T16:32:15;96386.28;;;33.42;26.89
41334;BME280;27078;46.428;6.256;2022-08-24T16:34:47;96385.56;;;33.26;27.04
41334;BME280;27078;46.428;6.256;2022-08-24T16:37:14;96384.53;;;33.12;27.28
41334;BME280;27078;46.428;6.256;2022-08-24T16:39:40;96386.81;;;32.95;26.70
41334;BME280;27078;46.428;6.256;2022-08-24T16:42:11;96383.88;;;32.81;27.76
41334;BME280;27078;46.428;6.256;2022-08-24T16:44:41;96385.31;;;32.48;28.26
41334;BME280;27078;46.428;6.256;2022-08-24T16:47:08;96381.84;;;32.11;28.09
41334;BME280;27078;46.428;6.256;2022-08-24T16:49:35;96386.22;;;31.71;28.69
41334;BME280;27078;46.428;6.256;2022-08-24T16:52:01;96399.19;;;31.13;29.05
41334;BME280;27078;46.428;6.256;2022-08-24T16:54:28;96387.59;;;30.75;30.21
41334;BME280;27078;46.428;6.256;2022-08-24T16:57:02;96393.41;;;30.41;31.09
41334;BME280;27078;46.428;6.256;2022-08-24T16:59:32;96387.78;;;30.10;31.15
41334;BME280;27078;46.428;6.256;2022-08-24T17:01:59;96388.13;;;29.87;31.93
41334;BME280;27078;46.428;6.256;2022-08-24T17:04:25;96384.97;;;29.68;31.66
41334;BME280;27078;46.428;6.256;2022-08-24T17:06:51;96393.28;;;29.56;32.21
41334;BME280;27078;46.428;6.256;2022-08-24T17:09:18;96395.91;;;29.46;32.84
41334;BME280;27078;46.428;6.256;2022-08-24T17:11:44;96394.22;;;29.39;33.43
41334;BME280;27078;46.428;6.256;2022-08-24T17:14:12;96384.38;;;29.33;32.21
41334;BME280;27078;46.428;6.256;2022-08-24T17:16:39;96388.09;;;29.22;32.05
41334;BME280;27078;46.428;6.256;2022-08-24T17:19:08;96397.78;;;29.13;32.44
41334;BME280;27078;46.428;6.256;2022-08-24T17:21:38;96394.91;;;29.02;32.32
41334;BME280;27078;46.428;6.256;2022-08-24T17:24:06;96395.38;;;28.94;32.93
41334;BME280;27078;46.428;6.256;2022-08-24T17:26:33;96403.41;;;28.84;33.80
41334;BME280;27078;46.428;6.256;2022-08-24T17:29:01;96397.47;;;28.87;32.38